Time;durP1;ratioP1;P1;durP2;ratioP2;P2;SDS_P1;SDS_P2;PMS_P1;PMS_P2;Temp;Humidity;BMP_temperature;BMP_pressure;BME280_temperature;BME280_humidity;BME280_pressure;Samples;Min_cycle;Max_cycle;Signal;HPM_P1;HPM_P2
2023/10/29 00:01:51;;;;;;;1.92;0.90;;;;;;;11.76;100.00;99072.75;5018976;28;20038;-71
2023/10/29 00:04:18;;;;;;;3.05;0.98;;;;;;;11.77;100.00;99074.44;5015167;28;20054;-70
2023/10/29 00:06:45;;;;;;;1.85;1.00;;;;;;;11.80;100.00;99062.88;5011061;28;20074;-70
2023/10/29 00:09:12;;;;;;;3.65;1.02;;;;;;;11.81;100.00;99073.31;5006140;28;20037;-70
2023/10/29 00:11:39;;;;;;;2.25;0.95;;;;;;;11.83;100.00;99067.94;5009700;28;20065;-70
2023/10/29 00:14:06;;;;;;;2.92;0.85;;;;;;;11.86;100.00;99078.28;5016090;28;20064;-69
2023/10/29 00:16:33;;;;;;;1.85;0.70;;;;;;;11.89;100.00;99070.19;5014945;28;20132;-72
2023/10/29 00:19:00;;;;;;;2.30;0.98;;;;;;;11.90;100.00;99071.03;5006589;28;20125;-71
2023/10/29 00:21:29;;;;;;;2.03;0.80;;;;;;;11.93;100.00;99069.03;5005418;28;20049;-72
2023/10/29 00:23:56;;;;;;;2.42;0.60;;;;;;;11.96;100.00;99068.84;5014977;28;20449;-70
2023/10/29 00:26:23;;;;;;;1.13;0.70;;;;;;;12.00;100.00;99068.69;5006390;28;20541;-70
2023/10/29 00:28:51;;;;;;;1.40;0.70;;;;;;;12.04;100.00;99062.25;5014491;28;20033;-70
2023/10/29 00:31:18;;;;;;;1.65;1.00;;;;;;;12.05;100.00;99056.00;5010686;28;20096;-72
2023/10/29 00:33:46;;;;;;;1.30;0.70;;;;;;;12.05;100.00;99062.16;5020942;28;20050;-71
2023/10/29 00:36:13;;;;;;;3.67;0.80;;;;;;;12.08;100.00;99056.66;5008024;28;20056;-71
2023/10/29 00:38:40;;;;;;;1.15;0.63;;;;;;;12.10;100.00;99038.09;5017028;28;20044;-71
2023/10/29 00:41:07;;;;;;;2.92;0.90;;;;;;;12.13;100.00;99029.94;5023716;28;20128;-71
2023/10/29 00:43:40;;;;;;;1.98;0.80;;;;;;;12.13;100.00;99010.63;5025346;28;20046;-70
2023/10/29 00:46:10;;;;;;;1.85;0.77;;;;;;;12.15;100.00;99020.13;5008346;28;20046;-71
2023/10/29 00:48:37;;;;;;;3.30;0.77;;;;;;;12.14;100.00;99002.59;5008062;28;20046;-70
2023/10/29 00:51:05;;;;;;;4.57;0.90;;;;;;;12.15;100.00;98985.78;5009152;28;20426;-71
2023/10/29 00:53:33;;;;;;;2.05;0.77;;;;;;;12.18;100.00;98988.25;5013802;28;20127;-70
2023/10/29 00:56:02;;;;;;;3.22;0.70;;;;;;;12.18;100.00;98985.59;5008745;28;20448;-70
2023/10/29 00:58:29;;;;;;;2.22;0.90;;;;;;;12.22;100.00;98988.88;4995056;28;20099;-70
2023/10/29 01:00:56;;;;;;;1.67;0.90;;;;;;;12.21;100.00;98985.38;5022911;28;20749;-70
2023/10/29 01:03:23;;;;;;;2.13;0.75;;;;;;;12.22;100.00;98975.66;5027983;28;20502;-70
2023/10/29 01:05:51;;;;;;;0.82;0.52;;;;;;;12.23;100.00;98987.94;5016516;28;20049;-70
2023/10/29 01:08:20;;;;;;;2.35;0.70;;;;;;;12.25;100.00;98986.88;5009016;28;20057;-67
2023/10/29 01:10:47;;;;;;;1.88;0.80;;;;;;;12.28;100.00;98969.97;5022522;28;20048;-71
2023/10/29 01:13:16;;;;;;;3.25;0.80;;;;;;;12.32;100.00;98963.53;5023434;28;20045;-71
2023/10/29 01:15:44;;;;;;;2.33;0.55;;;;;;;12.36;100.00;98958.88;5023566;28;22093;-70
2023/10/29 01:18:10;;;;;;;2.78;1.05;;;;;;;12.40;100.00;98961.22;4996917;28;20049;-70
2023/10/29 01:20:38;;;;;;;1.35;0.68;;;;;;;12.45;100.00;98965.34;5017557;28;20034;-70
2023/10/29 01:23:06;;;;;;;3.50;0.77;;;;;;;12.49;100.00;98965.03;5017727;28;20049;-70
2023/10/29 01:25:33;;;;;;;2.85;0.60;;;;;;;12.52;100.00;98970.09;5008524;28;20410;-70
2023/10/29 01:28:00;;;;;;;3.20;0.73;;;;;;;12.57;100.00;98978.56;5008694;28;20128;-69
2023/10/29 01:30:27;;;;;;;2.55;0.70;;;;;;;12.58;100.00;98971.47;5022815;28;20034;-69
2023/10/29 01:32:54;;;;;;;1.83;0.68;;;;;;;12.60;100.00;98976.69;5018864;28;20128;-69
2023/10/29 01:35:21;;;;;;;1.83;0.60;;;;;;;12.62;100.00;98965.03;5010111;28;20069;-70
2023/10/29 01:37:50;;;;;;;2.38;0.60;;;;;;;12.69;100.00;98958.38;5028499;28;20045;-67
2023/10/29 01:40:17;;;;;;;1.23;0.55;;;;;;;12.76;100.00;98947.38;5013069;28;20572;-70
2023/10/29 01:42:45;;;;;;;1.33;0.55;;;;;;;12.83;100.00;98935.41;5007847;28;20061;-69
2023/10/29 01:45:14;;;;;;;2.08;0.73;;;;;;;12.92;100.00;98955.09;5008025;28;20041;-70
2023/10/29 01:47:41;;;;;;;1.80;0.60;;;;;;;12.98;100.00;98955.47;5030626;28;20045;-69
2023/10/29 01:50:09;;;;;;;2.15;0.70;;;;;;;13.03;100.00;98947.22;5022603;28;20041;-70
2023/10/29 01:52:38;;;;;;;1.48;0.60;;;;;;;13.04;100.00;98955.06;5011028;28;20052;-69
2023/10/29 01:55:06;;;;;;;1.95;0.60;;;;;;;13.01;100.00;98942.06;5009192;28;20141;-69
2023/10/29 01:57:36;;;;;;;2.15;0.88;;;;;;;13.00;100.00;98923.66;5022451;28;20046;-69
2023/10/29 02:00:06;;;;;;;2.00;0.70;;;;;;;12.99;100.00;98917.50;5015295;28;20048;-72
2023/10/29 02:02:37;;;;;;;2.73;0.70;;;;;;;13.02;100.00;98904.06;5005775;28;20049;-70
2023/10/29 02:05:05;;;;;;;5.07;0.70;;;;;;;13.02;100.00;98896.13;5017832;28;20052;-70
2023/10/29 02:07:33;;;;;;;3.53;0.70;;;;;;;13.03;100.00;98899.59;5026021;28;20114;-70
2023/10/29 02:10:01;;;;;;;2.58;0.70;;;;;;;13.04;100.00;98891.59;5025721;28;20041;-70
2023/10/29 02:12:28;;;;;;;3.30;0.80;;;;;;;13.07;100.00;98887.03;5018483;28;20045;-70
2023/10/29 02:14:56;;;;;;;2.15;0.50;;;;;;;13.07;100.00;98894.97;5020804;28;20403;-71
2023/10/29 02:17:25;;;;;;;0.90;0.50;;;;;;;13.06;100.00;98888.81;5010858;28;20038;-70
2023/10/29 02:19:58;;;;;;;2.20;0.68;;;;;;;13.04;100.00;98899.53;5022271;28;20042;-70
2023/10/29 02:22:29;;;;;;;2.25;0.60;;;;;;;13.02;100.00;98895.31;5018323;28;20052;-70
2023/10/29 02:24:56;;;;;;;2.65;0.80;;;;;;;13.03;100.00;98907.53;5022772;28;20049;-70
2023/10/29 02:27:23;;;;;;;4.75;0.80;;;;;;;13.05;100.00;98910.94;5009987;28;20562;-70
2023/10/29 02:29:52;;;;;;;2.92;0.50;;;;;;;13.08;100.00;98902.78;5006499;28;20042;-70
2023/10/29 02:32:19;;;;;;;2.35;0.73;;;;;;;13.09;100.00;98895.69;5025067;28;20127;-70
2023/10/29 02:34:46;;;;;;;2.28;0.60;;;;;;;13.08;100.00;98891.34;5016752;28;20038;-70
2023/10/29 02:37:14;;;;;;;3.38;0.60;;;;;;;13.07;100.00;98887.03;5006918;28;20201;-70
2023/10/29 02:39:41;;;;;;;1.10;0.70;;;;;;;13.09;100.00;98900.97;5007069;28;20128;-70
2023/10/29 02:42:09;;;;;;;2.90;0.80;;;;;;;13.12;100.00;98891.03;5040305;28;20069;-70
2023/10/29 02:44:36;;;;;;;1.13;0.60;;;;;;;13.16;100.00;98899.59;5024218;28;20049;-70
2023/10/29 02:47:03;;;;;;;2.50;0.60;;;;;;;13.18;100.00;98905.59;5012536;28;20486;-70
2023/10/29 02:49:30;;;;;;;1.27;0.60;;;;;;;13.17;100.00;98901.28;5017494;28;20064;-70
2023/10/29 02:51:57;;;;;;;2.67;0.70;;;;;;;13.16;100.00;98908.38;5022218;28;20136;-70
2023/10/29 02:54:24;;;;;;;3.15;0.60;;;;;;;13.15;100.00;98903.19;5024165;28;20135;-70
2023/10/29 02:56:51;;;;;;;2.47;0.60;;;;;;;13.14;100.00;98899.69;5015886;28;20072;-70
2023/10/29 02:59:18;;;;;;;1.17;0.60;;;;;;;13.14;100.00;98904.97;5034007;28;20033;-70
2023/10/29 03:01:45;;;;;;;1.15;0.45;;;;;;;13.15;100.00;98908.50;5023478;28;20073;-70
2023/10/29 03:04:12;;;;;;;2.10;0.60;;;;;;;13.17;100.00;98909.22;5023908;28;20075;-70
2023/10/29 03:06:41;;;;;;;1.35;0.70;;;;;;;13.23;100.00;98908.78;5006973;28;20042;-70
2023/10/29 03:09:09;;;;;;;1.55;0.60;;;;;;;13.27;100.00;98904.97;5010614;28;20128;-71
2023/10/29 03:11:36;;;;;;;3.28;0.50;;;;;;;13.28;100.00;98900.50;5026467;28;20056;-70
2023/10/29 03:14:04;;;;;;;1.40;0.50;;;;;;;13.28;100.00;98911.91;5008009;28;20041;-70
2023/10/29 03:16:31;;;;;;;3.63;0.50;;;;;;;13.27;100.00;98920.84;5024233;28;20044;-70
2023/10/29 03:18:58;;;;;;;3.05;0.60;;;;;;;13.30;100.00;98915.31;5011125;28;20585;-70
2023/10/29 03:21:25;;;;;;;3.50;0.50;;;;;;;13.34;100.00;98907.97;5007332;28;20056;-71
2023/10/29 03:23:52;;;;;;;1.92;0.43;;;;;;;13.40;100.00;98917.31;5023897;28;20049;-70
2023/10/29 03:26:19;;;;;;;1.23;0.50;;;;;;;13.44;100.00;98924.09;5020293;28;20081;-70
2023/10/29 03:28:46;;;;;;;2.50;0.50;;;;;;;13.46;100.00;98915.06;5005815;28;20049;-70
2023/10/29 03:31:14;;;;;;;0.47;0.28;;;;;;;13.51;100.00;98909.44;5011700;28;20378;-70
2023/10/29 03:33:42;;;;;;;1.55;0.50;;;;;;;13.57;100.00;98913.44;5015695;28;20104;-70
2023/10/29 03:36:09;;;;;;;1.85;0.50;;;;;;;13.61;100.00;98918.41;5035592;28;20045;-70
2023/10/29 03:38:36;;;;;;;1.77;0.60;;;;;;;13.64;100.00;98910.25;5022938;28;20117;-70
2023/10/29 03:41:04;;;;;;;1.48;0.50;;;;;;;13.68;100.00;98929.38;5035660;28;20414;-70
2023/10/29 03:43:32;;;;;;;3.08;0.77;;;;;;;13.72;100.00;98917.63;5005784;28;20145;-70
2023/10/29 03:45:59;;;;;;;1.55;0.40;;;;;;;13.74;100.00;98910.38;5008106;28;20052;-70
2023/10/29 03:48:27;;;;;;;3.53;0.40;;;;;;;13.73;100.00;98923.75;5004820;28;20144;-70
2023/10/29 03:50:54;;;;;;;1.73;0.50;;;;;;;13.72;100.00;98908.81;5011040;28;20034;-71
2023/10/29 03:53:21;;;;;;;0.65;0.40;;;;;;;13.70;100.00;98916.88;5018339;28;20451;-70
2023/10/29 03:55:51;;;;;;;0.85;0.40;;;;;;;13.70;100.00;98918.66;5030027;28;20456;-71
2023/10/29 03:58:18;;;;;;;2.00;0.60;;;;;;;13.69;100.00;98911.69;5007158;28;20052;-71
2023/10/29 04:00:54;;;;;;;1.65;0.50;;;;;;;13.65;100.00;98906.63;5004843;28;20041;-73
2023/10/29 04:03:21;;;;;;;0.90;0.50;;;;;;;13.63;100.00;98908.53;5007788;28;20672;-71
2023/10/29 04:05:48;;;;;;;5.10;1.05;;;;;;;13.60;100.00;98905.28;5018801;28;20509;-71
2023/10/29 04:08:16;;;;;;;4.00;0.80;;;;;;;13.51;100.00;98926.19;5042066;28;20112;-71
2023/10/29 04:10:44;;;;;;;5.38;0.80;;;;;;;13.44;100.00;98918.78;5040067;28;20124;-71
2023/10/29 04:13:12;;;;;;;3.13;0.60;;;;;;;13.34;100.00;98922.06;5018376;28;20065;-71
2023/10/29 04:15:39;;;;;;;2.40;0.68;;;;;;;13.27;100.00;98931.44;5029079;28;20395;-72
2023/10/29 04:18:06;;;;;;;2.40;0.70;;;;;;;13.20;100.00;98919.56;5013986;28;20049;-71
2023/10/29 04:20:33;;;;;;;2.60;0.70;;;;;;;13.15;100.00;98925.19;5023775;28;20053;-71
2023/10/29 04:23:00;;;;;;;1.23;0.70;;;;;;;13.09;100.00;98933.59;5025190;28;20481;-71
2023/10/29 04:25:27;;;;;;;2.88;0.70;;;;;;;13.02;100.00;98940.28;5024160;28;20049;-72
2023/10/29 04:27:54;;;;;;;1.13;0.60;;;;;;;12.96;100.00;98930.97;5020951;28;20112;-71
2023/10/29 04:30:22;;;;;;;3.30;0.63;;;;;;;12.89;100.00;98919.97;5025679;28;20079;-71
2023/10/29 04:32:49;;;;;;;2.63;0.50;;;;;;;12.88;100.00;98931.50;5014111;28;20045;-71
2023/10/29 04:35:16;;;;;;;1.17;0.55;;;;;;;12.88;100.00;98925.34;5020966;28;20045;-70
2023/10/29 04:37:43;;;;;;;2.50;1.15;;;;;;;12.85;100.00;98926.41;5013838;28;20203;-70
2023/10/29 04:40:10;;;;;;;1.55;0.50;;;;;;;12.81;100.00;98935.53;5008504;28;20034;-69
2023/10/29 04:42:37;;;;;;;1.65;0.65;;;;;;;12.82;100.00;98931.09;5007700;28;20424;-70
2023/10/29 04:45:04;;;;;;;1.83;0.60;;;;;;;12.80;100.00;98922.41;5014751;28;20063;-72
2023/10/29 04:47:31;;;;;;;3.78;0.80;;;;;;;12.80;100.00;98932.97;5015773;28;20054;-69
2023/10/29 04:49:58;;;;;;;2.15;0.68;;;;;;;12.80;100.00;98935.63;5020590;28;20037;-71
2023/10/29 04:52:25;;;;;;;2.67;0.70;;;;;;;12.78;100.00;98950.75;5018865;28;20060;-71
2023/10/29 04:54:53;;;;;;;2.08;0.75;;;;;;;12.80;100.00;98940.91;5013443;28;20135;-70
2023/10/29 04:57:21;;;;;;;2.10;0.70;;;;;;;12.83;100.00;98925.66;5029176;28;20049;-71
2023/10/29 04:59:48;;;;;;;1.60;0.50;;;;;;;12.88;100.00;98914.78;5016170;28;20053;-73
2023/10/29 05:02:16;;;;;;;0.90;0.50;;;;;;;12.88;100.00;98923.56;5009460;28;20038;-72
2023/10/29 05:04:43;;;;;;;2.83;0.70;;;;;;;12.87;100.00;98921.03;5018417;28;20037;-72
2023/10/29 05:07:11;;;;;;;4.55;1.02;;;;;;;12.82;100.00;98931.91;5031661;28;20049;-73
2023/10/29 05:09:38;;;;;;;1.80;0.60;;;;;;;12.80;100.00;98938.25;5009894;28;20052;-72
2023/10/29 05:12:07;;;;;;;1.08;0.50;;;;;;;12.80;100.00;98936.50;5015204;28;20619;-70
2023/10/29 05:14:34;;;;;;;2.85;0.70;;;;;;;12.85;100.00;98930.88;5035658;28;20593;-72
2023/10/29 05:17:02;;;;;;;5.05;1.00;;;;;;;12.88;100.00;98930.63;5026119;28;20049;-69
2023/10/29 05:19:29;;;;;;;1.58;0.60;;;;;;;12.90;100.00;98926.09;5017086;28;20124;-70
2023/10/29 05:21:56;;;;;;;2.47;0.60;;;;;;;12.92;100.00;98926.84;5013291;28;20056;-70
2023/10/29 05:24:23;;;;;;;1.10;0.40;;;;;;;12.96;100.00;98933.63;5016341;28;20052;-74
2023/10/29 05:26:50;;;;;;;1.48;0.47;;;;;;;12.97;100.00;98947.66;5015435;28;20049;-72
2023/10/29 05:29:17;;;;;;;3.45;1.10;;;;;;;12.95;100.00;98945.16;5023518;28;20135;-71
2023/10/29 05:31:44;;;;;;;3.72;0.75;;;;;;;12.94;100.00;98942.59;5007844;28;20037;-75
2023/10/29 05:34:11;;;;;;;2.70;1.00;;;;;;;12.96;100.00;98938.03;5017413;28;20045;-72
2023/10/29 05:36:38;;;;;;;3.58;0.63;;;;;;;12.98;100.00;98936.13;5009214;28;20125;-73
2023/10/29 05:39:07;;;;;;;4.97;0.95;;;;;;;13.01;100.00;98930.63;5024862;28;20053;-72
2023/10/29 05:41:34;;;;;;;2.60;0.70;;;;;;;13.06;100.00;98931.13;5024508;28;20866;-71
2023/10/29 05:44:01;;;;;;;5.25;1.17;;;;;;;13.09;100.00;98917.72;5028117;28;20045;-70
2023/10/29 05:46:31;;;;;;;3.47;0.70;;;;;;;13.13;100.00;98926.25;5041973;28;20048;-70
2023/10/29 05:49:01;;;;;;;2.05;0.70;;;;;;;13.16;100.00;98937.47;5027371;28;20096;-70
2023/10/29 05:51:33;;;;;;;2.83;0.60;;;;;;;13.25;100.00;98935.13;5019802;28;20093;-71
2023/10/29 05:54:02;;;;;;;4.82;0.63;;;;;;;13.29;100.00;98944.53;5022685;28;20511;-71
2023/10/29 05:56:32;;;;;;;3.05;0.70;;;;;;;13.32;100.00;98952.25;5023751;28;20045;-70
2023/10/29 05:58:59;;;;;;;2.05;0.60;;;;;;;13.36;100.00;98973.09;5026077;28;20045;-71
2023/10/29 06:01:26;;;;;;;2.75;0.60;;;;;;;13.42;100.00;98971.84;5025609;28;20042;-70
2023/10/29 06:03:55;;;;;;;4.28;0.90;;;;;;;13.47;100.00;98985.59;5024962;28;20045;-71
2023/10/29 06:06:25;;;;;;;3.55;0.60;;;;;;;13.49;100.00;98988.09;5019414;28;20052;-70
2023/10/29 06:08:52;;;;;;;3.08;0.80;;;;;;;13.50;100.00;98989.81;5024672;28;20052;-70
2023/10/29 06:11:19;;;;;;;3.03;0.70;;;;;;;13.52;100.00;99027.59;5025051;28;20042;-71
2023/10/29 06:13:53;;;;;;;2.53;0.60;;;;;;;13.33;100.00;99014.78;5041499;28;20042;-71
2023/10/29 06:16:20;;;;;;;3.88;0.90;;;;;;;12.98;100.00;99021.59;5026455;28;20037;-71
2023/10/29 06:18:47;;;;;;;3.75;1.00;;;;;;;12.66;100.00;99029.13;5041274;28;20034;-71
2023/10/29 06:21:18;;;;;;;6.50;0.93;;;;;;;12.46;100.00;99027.84;5020222;28;20091;-71
2023/10/29 06:23:46;;;;;;;2.92;0.80;;;;;;;12.28;100.00;99025.44;5022502;28;20065;-71
2023/10/29 06:26:16;;;;;;;3.10;0.50;;;;;;;12.14;100.00;99049.31;5025656;28;20068;-71
2023/10/29 06:28:48;;;;;;;2.30;0.57;;;;;;;12.04;100.00;99051.69;5026793;28;20136;-71
2023/10/29 06:31:28;;;;;;;3.20;0.93;;;;;;;11.98;100.00;99045.00;5019642;28;20124;-70
2023/10/29 06:34:00;;;;;;;6.88;0.95;;;;;;;11.94;100.00;99060.16;5023269;28;20041;-70
2023/10/29 06:36:30;;;;;;;3.58;0.80;;;;;;;11.94;100.00;99065.44;5023899;28;20068;-70
2023/10/29 06:38:58;;;;;;;2.92;1.08;;;;;;;11.93;100.00;99069.03;5026510;28;20047;-70
2023/10/29 06:41:25;;;;;;;2.20;0.80;;;;;;;11.92;100.00;99072.63;5017504;28;20143;-71
2023/10/29 06:43:52;;;;;;;5.30;0.95;;;;;;;11.84;100.00;99071.44;5025842;28;20065;-70
2023/10/29 06:46:19;;;;;;;5.13;1.10;;;;;;;11.77;100.00;99074.44;5024806;28;20444;-70
2023/10/29 06:48:52;;;;;;;6.15;1.40;;;;;;;11.72;100.00;99071.25;5025139;28;20577;-70
2023/10/29 06:51:22;;;;;;;3.63;0.90;;;;;;;11.71;100.00;99069.56;5021965;28;20723;-71
2023/10/29 06:53:49;;;;;;;4.88;1.05;;;;;;;11.68;100.00;99085.59;5021245;28;20037;-70
2023/10/29 06:56:19;;;;;;;7.53;1.25;;;;;;;11.69;100.00;99094.38;5039966;28;20509;-69
2023/10/29 06:58:46;;;;;;;4.80;1.17;;;;;;;11.67;100.00;99091.81;5023933;28;20057;-70
2023/10/29 07:01:15;;;;;;;6.57;1.08;;;;;;;11.68;100.00;99098.78;5038957;28;20056;-70
2023/10/29 07:03:47;;;;;;;7.85;1.35;;;;;;;11.69;100.00;99097.00;5024414;28;20130;-70
2023/10/29 07:06:16;;;;;;;5.20;1.20;;;;;;;11.72;100.00;99096.78;5020068;28;20494;-69
2023/10/29 07:08:45;;;;;;;5.85;1.35;;;;;;;11.77;100.00;99100.00;5042494;28;20092;-70
2023/10/29 07:11:12;;;;;;;6.55;1.20;;;;;;;11.80;100.00;99100.66;5019817;28;20128;-70
2023/10/29 07:13:39;;;;;;;8.75;1.33;;;;;;;11.87;100.00;99116.09;5024915;28;20053;-70
2023/10/29 07:16:09;;;;;;;7.95;1.10;;;;;;;11.93;100.00;99116.56;5020632;28;20657;-69
2023/10/29 07:18:36;;;;;;;4.82;1.20;;;;;;;12.05;100.00;99120.28;5022358;28;20448;-67
2023/10/29 07:21:04;;;;;;;6.05;1.00;;;;;;;12.21;100.00;99121.91;5036565;28;20045;-68
2023/10/29 07:23:32;;;;;;;8.70;1.08;;;;;;;12.32;100.00;99130.00;5022063;28;20410;-69
2023/10/29 07:25:59;;;;;;;4.88;1.00;;;;;;;12.43;100.00;99138.06;5037681;28;20049;-68
2023/10/29 07:28:28;;;;;;;5.82;1.20;;;;;;;12.56;100.00;99142.56;5015930;28;20045;-67
2023/10/29 07:30:55;;;;;;;6.57;1.08;;;;;;;12.70;100.00;99144.28;5028148;28;20042;-69
2023/10/29 07:33:22;;;;;;;5.60;1.20;;;;;;;12.84;100.00;99138.91;5016854;28;20063;-68
2023/10/29 07:35:50;;;;;;;7.28;1.52;;;;;;;12.99;100.00;99139.69;5019377;28;21598;-68
2023/10/29 07:38:17;;;;;;;6.50;1.00;;;;;;;13.04;100.00;99134.94;5018871;28;20104;-68
2023/10/29 07:40:44;;;;;;;5.55;1.00;;;;;;;13.09;100.00;99139.06;5035820;28;20134;-68
2023/10/29 07:43:11;;;;;;;8.75;1.42;;;;;;;13.11;100.00;99148.59;5012156;28;20053;-68
2023/10/29 07:45:38;;;;;;;9.55;1.30;;;;;;;13.13;100.00;99154.63;5024336;28;20045;-68
2023/10/29 07:48:05;;;;;;;7.82;1.10;;;;;;;13.16;100.00;99167.66;5019609;28;20046;-69
2023/10/29 07:50:33;;;;;;;5.63;1.13;;;;;;;13.18;100.00;99160.47;5010468;28;20462;-68
2023/10/29 07:53:01;;;;;;;6.25;1.13;;;;;;;13.22;100.00;99173.50;5018970;28;20323;-68
2023/10/29 07:55:28;;;;;;;6.28;1.10;;;;;;;13.25;100.00;99157.38;5007884;28;20092;-68
2023/10/29 07:57:55;;;;;;;6.32;1.02;;;;;;;13.27;100.00;99176.66;5009536;28;20076;-68
2023/10/29 08:00:22;;;;;;;8.93;1.45;;;;;;;13.29;100.00;99183.53;5024190;28;20757;-68
2023/10/29 08:02:49;;;;;;;6.68;1.50;;;;;;;13.35;100.00;99184.91;5015451;28;20133;-68
2023/10/29 08:05:17;;;;;;;7.63;1.30;;;;;;;13.39;100.00;99191.75;5017589;28;20625;-68
2023/10/29 08:07:44;;;;;;;5.20;0.98;;;;;;;13.42;100.00;99195.97;5008027;28;20049;-70
2023/10/29 08:10:11;;;;;;;12.68;1.50;;;;;;;13.44;100.00;99197.53;5011841;28;20049;-71
2023/10/29 08:12:38;;;;;;;7.72;1.20;;;;;;;13.44;99.45;99204.66;5006571;28;20045;-70
2023/10/29 08:15:06;;;;;;;5.78;1.13;;;;;;;13.47;99.74;99196.50;5012433;28;20038;-69
2023/10/29 08:17:33;;;;;;;7.30;1.20;;;;;;;13.51;100.00;99200.63;5006380;28;20048;-70
2023/10/29 08:20:00;;;;;;;8.18;1.50;;;;;;;13.56;100.00;99200.31;5006762;28;20526;-70
2023/10/29 08:22:28;;;;;;;6.93;1.20;;;;;;;13.61;100.00;99195.56;5016291;28;20041;-70
2023/10/29 08:24:56;;;;;;;5.32;1.10;;;;;;;13.67;99.61;99216.31;5016615;28;20054;-70
2023/10/29 08:27:23;;;;;;;10.27;1.38;;;;;;;13.73;94.79;99204.44;5024110;28;20041;-70
2023/10/29 08:29:50;;;;;;;9.52;1.17;;;;;;;13.76;96.47;99204.25;5021025;28;20041;-70
2023/10/29 08:32:17;;;;;;;8.95;1.30;;;;;;;13.81;96.65;99210.03;5022581;28;20046;-71
2023/10/29 08:34:45;;;;;;;8.35;1.23;;;;;;;13.89;95.34;99213.00;5022557;28;20073;-72
2023/10/29 08:37:12;;;;;;;7.25;1.33;;;;;;;13.97;94.76;99220.41;5017574;28;20160;-71
2023/10/29 08:39:39;;;;;;;7.82;1.40;;;;;;;14.05;93.64;99227.84;5020332;28;20099;-72
2023/10/29 08:42:06;;;;;;;7.90;1.50;;;;;;;14.16;93.46;99227.06;5029497;28;20064;-71
2023/10/29 08:44:34;;;;;;;6.40;1.02;;;;;;;14.26;94.43;99223.66;5009647;28;20048;-70
2023/10/29 08:47:01;;;;;;;6.70;1.20;;;;;;;14.38;92.96;99221.94;5015696;28;20217;-70
2023/10/29 08:49:28;;;;;;;7.20;1.10;;;;;;;14.41;92.66;99223.50;5021097;28;20038;-72
2023/10/29 08:51:55;;;;;;;6.57;1.33;;;;;;;14.43;91.40;99237.50;5006626;28;20048;-72
2023/10/29 08:54:23;;;;;;;7.70;1.15;;;;;;;14.43;91.94;99235.72;5015347;28;20056;-73
2023/10/29 08:56:50;;;;;;;5.10;1.20;;;;;;;14.43;92.08;99248.97;5016186;28;20124;-70
2023/10/29 08:59:36;;;;;;;6.22;1.38;;;;;;;14.45;91.82;99233.78;5027734;28;20041;-72
2023/10/29 09:02:04;;;;;;;6.47;1.52;;;;;;;14.45;86.19;99238.25;5041080;28;20452;-70
2023/10/29 09:04:37;;;;;;;4.65;1.27;;;;;;;14.48;89.23;99258.38;5017742;28;20136;-70
2023/10/29 09:07:05;;;;;;;9.60;1.73;;;;;;;14.50;91.49;99262.59;5024858;28;20057;-71
2023/10/29 09:09:32;;;;;;;7.47;1.20;;;;;;;14.54;89.80;99284.47;5028146;28;20138;-70
2023/10/29 09:11:59;;;;;;;6.15;1.45;;;;;;;14.58;90.04;99288.59;5032870;28;20037;-70
2023/10/29 09:14:26;;;;;;;6.47;1.33;;;;;;;14.62;90.89;99286.56;5017616;28;20041;-70
2023/10/29 09:16:53;;;;;;;4.95;1.45;;;;;;;14.68;87.26;99288.81;5027693;28;20049;-71
2023/10/29 09:19:20;;;;;;;10.10;1.65;;;;;;;14.75;86.99;99290.88;5015429;28;20129;-71
2023/10/29 09:21:48;;;;;;;8.48;1.30;;;;;;;14.76;86.41;99299.72;5021915;28;20382;-71
2023/10/29 09:24:15;;;;;;;5.65;1.10;;;;;;;14.77;86.17;99306.72;5023755;28;20133;-71
2023/10/29 09:26:42;;;;;;;8.35;1.42;;;;;;;14.84;85.87;99310.59;5027509;28;20413;-71
2023/10/29 09:29:09;;;;;;;8.68;1.55;;;;;;;14.96;84.46;99294.75;5027043;28;20513;-71
2023/10/29 09:31:36;;;;;;;6.80;1.20;;;;;;;15.04;85.51;99297.69;5025068;28;20045;-71
2023/10/29 09:34:04;;;;;;;6.25;1.25;;;;;;;15.18;84.65;99308.16;5037056;28;20045;-71
2023/10/29 09:36:31;;;;;;;6.85;1.10;;;;;;;15.31;81.52;99301.94;5016302;28;20164;-70
2023/10/29 09:38:58;;;;;;;6.43;1.27;;;;;;;15.42;81.95;99301.13;5026331;28;20132;-70
2023/10/29 09:41:25;;;;;;;7.43;1.25;;;;;;;15.38;81.97;99311.13;5026180;28;20069;-69
2023/10/29 09:43:53;;;;;;;5.47;1.00;;;;;;;15.35;80.67;99306.91;5027076;28;20479;-71
2023/10/29 09:46:23;;;;;;;3.22;1.02;;;;;;;15.34;81.41;99307.84;5027741;28;20049;-70
2023/10/29 09:48:53;;;;;;;6.22;1.10;;;;;;;15.35;81.29;99309.56;5026963;28;20049;-70
2023/10/29 09:51:21;;;;;;;6.97;1.40;;;;;;;15.38;82.21;99319.91;5016894;28;20041;-71
2023/10/29 09:53:51;;;;;;;4.78;1.23;;;;;;;15.42;82.93;99314.38;5032904;28;20049;-70
2023/10/29 09:56:19;;;;;;;6.15;1.02;;;;;;;15.44;82.99;99315.13;5044248;28;20430;-70
2023/10/29 09:58:47;;;;;;;6.78;1.00;;;;;;;15.47;79.75;99312.22;5022530;28;20045;-70
2023/10/29 10:01:14;;;;;;;4.70;1.30;;;;;;;15.44;79.88;99302.69;5025050;28;20048;-70
2023/10/29 10:03:41;;;;;;;11.55;1.75;;;;;;;15.39;77.96;99312.81;5023467;28;20049;-72
2023/10/29 10:06:11;;;;;;;5.20;0.90;;;;;;;15.33;79.13;99311.47;5026002;28;20045;-70
2023/10/29 10:08:38;;;;;;;7.47;1.15;;;;;;;15.24;78.36;99300.66;5024679;28;20128;-71
2023/10/29 10:11:23;;;;;;;4.70;1.00;;;;;;;15.18;81.04;99305.50;5009852;28;20061;-71
2023/10/29 10:13:50;;;;;;;5.15;1.10;;;;;;;15.16;82.34;99288.81;5011146;28;20064;-70
2023/10/29 10:16:19;;;;;;;5.03;1.10;;;;;;;15.24;82.36;99277.66;5013855;28;20125;-71
2023/10/29 10:18:55;;;;;;;5.60;1.35;;;;;;;15.31;79.48;99286.00;5012813;28;20069;-71
2023/10/29 10:21:41;;;;;;;5.38;0.88;;;;;;;15.31;80.22;99278.03;5025046;28;20042;-72
2023/10/29 10:24:10;;;;;;;7.13;1.25;;;;;;;15.34;83.14;99285.75;5021615;28;20568;-71
2023/10/29 10:26:38;;;;;;;4.65;1.00;;;;;;;15.35;81.40;99287.44;5005571;28;20088;-71
2023/10/29 10:29:08;;;;;;;3.05;0.82;;;;;;;15.37;80.44;99285.53;5021115;28;20065;-71
2023/10/29 10:31:35;;;;;;;6.28;1.17;;;;;;;15.37;82.25;99277.56;5008356;28;20045;-71
2023/10/29 10:34:16;;;;;;;6.20;1.65;;;;;;;15.38;80.74;99280.09;5014972;28;20041;-72
2023/10/29 10:36:49;;;;;;;6.80;1.27;;;;;;;15.37;81.60;99285.53;5019506;28;20065;-71
2023/10/29 10:39:23;;;;;;;7.93;1.10;;;;;;;15.38;83.60;99287.22;5022931;28;20049;-72
2023/10/29 10:41:50;;;;;;;4.57;0.90;;;;;;;15.36;82.77;99284.66;5025103;28;20029;-72
2023/10/29 10:44:19;;;;;;;10.30;1.20;;;;;;;15.37;82.17;99290.84;5017228;28;20041;-72
2023/10/29 10:46:57;;;;;;;6.45;1.30;;;;;;;15.37;83.38;99289.00;5019239;28;20445;-71
2023/10/29 10:49:26;;;;;;;6.82;1.10;;;;;;;15.42;85.01;99279.88;5021073;28;20037;-70
2023/10/29 10:51:56;;;;;;;5.35;1.30;;;;;;;15.50;84.33;99288.09;5023969;28;20553;-70
2023/10/29 10:54:23;;;;;;;5.00;1.13;;;;;;;15.59;85.97;99292.72;5017138;28;20052;-71
2023/10/29 10:56:53;;;;;;;5.28;1.05;;;;;;;15.69;85.37;99303.50;5020965;28;20042;-72
2023/10/29 10:59:21;;;;;;;6.18;1.20;;;;;;;15.73;83.38;99301.44;5023180;28;20200;-71
2023/10/29 11:01:49;;;;;;;7.07;1.33;;;;;;;15.75;83.85;99307.50;5031233;28;20774;-71
2023/10/29 11:04:18;;;;;;;8.90;1.60;;;;;;;15.80;81.85;99311.50;5027296;28;20045;-70
2023/10/29 11:06:46;;;;;;;7.38;1.48;;;;;;;15.82;81.45;99319.34;5017310;28;20654;-73
2023/10/29 11:09:14;;;;;;;7.97;1.52;;;;;;;15.80;80.46;99321.25;5018149;28;20502;-72
2023/10/29 11:11:54;;;;;;;5.18;1.23;;;;;;;15.71;81.42;99333.47;5020866;28;20037;-72
2023/10/29 11:14:24;;;;;;;5.55;0.90;;;;;;;15.56;78.94;99338.13;5024512;28;20057;-72
2023/10/29 11:16:57;;;;;;;5.78;1.15;;;;;;;15.43;80.56;99334.69;5021778;28;20045;-72
2023/10/29 11:19:46;;;;;;;6.30;1.45;;;;;;;15.31;79.56;99347.06;5020716;28;20048;-72
2023/10/29 11:22:21;;;;;;;6.07;1.08;;;;;;;15.16;81.29;99349.88;5023445;28;20069;-73
2023/10/29 11:25:11;;;;;;;8.07;1.90;;;;;;;15.06;82.56;99331.09;5022740;28;20044;-73
2023/10/29 11:27:44;;;;;;;6.03;1.10;;;;;;;14.98;83.83;99330.00;5023033;28;20521;-70
2023/10/29 11:30:16;;;;;;;7.25;1.40;;;;;;;14.95;83.85;99333.72;5017841;28;20052;-70
2023/10/29 11:32:46;;;;;;;6.70;1.65;;;;;;;14.94;84.21;99332.03;5045090;28;20042;-73